Terminal Aerodrome Forecast
Issued by NWS

Home | Current Version | Previous Version | Text Only | Print | Product List | Glossary On
Versions: 1 2 3 4 5 6 7 8 9 10 11 12 13 14 15 16 17
935
FTUS46 KSTO 241304 AAA
TAFRBL
TAF AMD
KRBL 241304Z 2413/2512 14016KT P6SM -RA OVC040
     FM241600 15020G30KT 5SM -RA OVC025
     FM242300 15011KT 6SM -SHRA BR OVC035=

USA.gov is the U.S. government's official web portal to all federal, state and local government web resources and services.